sensor_id;sensor_type;location;lat;lon;timestamp;temperature;humidity
1704;DHT22;849;48.780;9.216;2023-12-07T00:01:47;5.80;99.90
1704;DHT22;849;48.780;9.216;2023-12-07T00:04:32;5.80;99.90
1704;DHT22;849;48.780;9.216;2023-12-07T00:07:16;5.80;99.90
1704;DHT22;849;48.780;9.216;2023-12-07T00:10:00;5.80;99.90
1704;DHT22;849;48.780;9.216;2023-12-07T00:12:44;5.80;99.90
1704;DHT22;849;48.780;9.216;2023-12-07T00:15:29;5.80;99.90
1704;DHT22;849;48.780;9.216;2023-12-07T00:18:13;5.80;99.90
1704;DHT22;849;48.780;9.216;2023-12-07T00:20:57;5.80;99.90
1704;DHT22;849;48.780;9.216;2023-12-07T00:23:41;5.80;99.90
1704;DHT22;849;48.780;9.216;2023-12-07T00:26:25;5.90;99.90
1704;DHT22;849;48.780;9.216;2023-12-07T00:29:09;5.90;99.90
1704;DHT22;849;48.780;9.216;2023-12-07T00:31:53;5.80;99.90
1704;DHT22;849;48.780;9.216;2023-12-07T00:34:38;5.80;99.90
1704;DHT22;849;48.780;9.216;2023-12-07T00:37:22;5.80;99.90
1704;DHT22;849;48.780;9.216;2023-12-07T00:40:06;5.90;99.90
1704;DHT22;849;48.780;9.216;2023-12-07T00:42:51;5.90;99.90
1704;DHT22;849;48.780;9.216;2023-12-07T00:45:36;6.00;99.90
1704;DHT22;849;48.780;9.216;2023-12-07T00:48:20;6.00;99.90
1704;DHT22;849;48.780;9.216;2023-12-07T00:51:05;6.00;99.90
1704;DHT22;849;48.780;9.216;2023-12-07T00:53:50;6.00;99.90
1704;DHT22;849;48.780;9.216;2023-12-07T00:56:34;6.10;99.90
1704;DHT22;849;48.780;9.216;2023-12-07T00:59:18;6.10;99.90
1704;DHT22;849;48.780;9.216;2023-12-07T01:02:03;6.00;99.90
1704;DHT22;849;48.780;9.216;2023-12-07T01:04:47;6.00;99.90
1704;DHT22;849;48.780;9.216;2023-12-07T01:07:31;6.00;99.90
1704;DHT22;849;48.780;9.216;2023-12-07T01:10:15;6.00;99.90
1704;DHT22;849;48.780;9.216;2023-12-07T01:12:59;6.00;99.90
1704;DHT22;849;48.780;9.216;2023-12-07T01:15:43;6.10;99.90
1704;DHT22;849;48.780;9.216;2023-12-07T01:18:28;6.10;99.90
1704;DHT22;849;48.780;9.216;2023-12-07T01:21:12;6.10;99.90
1704;DHT22;849;48.780;9.216;2023-12-07T01:23:56;6.10;99.90
1704;DHT22;849;48.780;9.216;2023-12-07T01:26:42;6.00;99.90
1704;DHT22;849;48.780;9.216;2023-12-07T01:29:26;6.00;99.90
1704;DHT22;849;48.780;9.216;2023-12-07T01:32:10;6.00;99.90
1704;DHT22;849;48.780;9.216;2023-12-07T01:34:54;5.90;99.90
1704;DHT22;849;48.780;9.216;2023-12-07T01:37:39;6.00;99.90
1704;DHT22;849;48.780;9.216;2023-12-07T01:40:23;5.90;99.90
1704;DHT22;849;48.780;9.216;2023-12-07T01:43:07;5.90;99.90
1704;DHT22;849;48.780;9.216;2023-12-07T01:45:52;5.80;99.90
1704;DHT22;849;48.780;9.216;2023-12-07T01:48:37;5.90;99.90
1704;DHT22;849;48.780;9.216;2023-12-07T01:51:21;5.90;99.90
1704;DHT22;849;48.780;9.216;2023-12-07T01:54:06;5.90;99.90
1704;DHT22;849;48.780;9.216;2023-12-07T01:56:50;5.90;99.90
1704;DHT22;849;48.780;9.216;2023-12-07T01:59:35;5.80;99.90
1704;DHT22;849;48.780;9.216;2023-12-07T02:02:19;5.80;99.90
1704;DHT22;849;48.780;9.216;2023-12-07T02:05:04;5.80;99.90
1704;DHT22;849;48.780;9.216;2023-12-07T02:07:48;5.80;99.90
1704;DHT22;849;48.780;9.216;2023-12-07T02:10:32;5.80;99.90
1704;DHT22;849;48.780;9.216;2023-12-07T02:13:16;5.80;99.90
1704;DHT22;849;48.780;9.216;2023-12-07T02:16:01;5.80;99.90
1704;DHT22;849;48.780;9.216;2023-12-07T02:22:02;5.70;99.90
1704;DHT22;849;48.780;9.216;2023-12-07T02:24:55;5.70;99.90
1704;DHT22;849;48.780;9.216;2023-12-07T02:27:45;5.70;99.90
1704;DHT22;849;48.780;9.216;2023-12-07T02:30:29;5.70;99.90
1704;DHT22;849;48.780;9.216;2023-12-07T02:33:14;5.60;99.90
1704;DHT22;849;48.780;9.216;2023-12-07T02:35:59;5.60;99.90
1704;DHT22;849;48.780;9.216;2023-12-07T02:38:43;5.50;99.90
1704;DHT22;849;48.780;9.216;2023-12-07T02:41:27;5.50;99.90
1704;DHT22;849;48.780;9.216;2023-12-07T02:44:12;5.40;99.90
1704;DHT22;849;48.780;9.216;2023-12-07T02:46:56;5.30;99.90
1704;DHT22;849;48.780;9.216;2023-12-07T02:49:40;5.30;99.90
1704;DHT22;849;48.780;9.216;2023-12-07T02:52:24;5.30;99.90
1704;DHT22;849;48.780;9.216;2023-12-07T02:55:09;5.20;99.90
1704;DHT22;849;48.780;9.216;2023-12-07T02:57:53;5.20;99.90
1704;DHT22;849;48.780;9.216;2023-12-07T03:00:37;5.10;99.90
1704;DHT22;849;48.780;9.216;2023-12-07T03:03:21;5.10;99.90
1704;DHT22;849;48.780;9.216;2023-12-07T03:06:05;5.00;99.90
1704;DHT22;849;48.780;9.216;2023-12-07T03:08:49;5.10;99.90
1704;DHT22;849;48.780;9.216;2023-12-07T03:11:34;5.10;99.90
1704;DHT22;849;48.780;9.216;2023-12-07T03:14:18;5.10;99.90
1704;DHT22;849;48.780;9.216;2023-12-07T03:17:04;5.10;99.90
1704;DHT22;849;48.780;9.216;2023-12-07T03:19:48;5.00;99.90
1704;DHT22;849;48.780;9.216;2023-12-07T03:22:32;5.10;99.90
1704;DHT22;849;48.780;9.216;2023-12-07T03:25:16;5.10;99.90
1704;DHT22;849;48.780;9.216;2023-12-07T03:28:00;5.10;99.90
1704;DHT22;849;48.780;9.216;2023-12-07T03:30:44;5.20;99.90
1704;DHT22;849;48.780;9.216;2023-12-07T03:33:29;5.20;99.90
1704;DHT22;849;48.780;9.216;2023-12-07T03:36:13;5.20;99.90
1704;DHT22;849;48.780;9.216;2023-12-07T03:38:57;5.20;99.90
1704;DHT22;849;48.780;9.216;2023-12-07T03:41:41;5.20;99.90
1704;DHT22;849;48.780;9.216;2023-12-07T03:44:25;5.30;99.90
1704;DHT22;849;48.780;9.216;2023-12-07T03:47:10;5.30;99.90
1704;DHT22;849;48.780;9.216;2023-12-07T03:49:54;5.30;99.90
1704;DHT22;849;48.780;9.216;2023-12-07T03:52:39;5.30;99.90
1704;DHT22;849;48.780;9.216;2023-12-07T03:55:23;5.30;99.90
1704;DHT22;849;48.780;9.216;2023-12-07T03:58:07;5.30;99.90
1704;DHT22;849;48.780;9.216;2023-12-07T04:00:51;5.20;99.90
1704;DHT22;849;48.780;9.216;2023-12-07T04:03:36;5.30;99.90
1704;DHT22;849;48.780;9.216;2023-12-07T04:06:20;5.20;99.90
1704;DHT22;849;48.780;9.216;2023-12-07T04:09:05;5.20;99.90
1704;DHT22;849;48.780;9.216;2023-12-07T04:11:49;5.20;99.90
1704;DHT22;849;48.780;9.216;2023-12-07T04:14:33;5.10;99.90
1704;DHT22;849;48.780;9.216;2023-12-07T04:17:17;5.10;99.90
1704;DHT22;849;48.780;9.216;2023-12-07T04:20:01;5.10;99.90
1704;DHT22;849;48.780;9.216;2023-12-07T04:22:46;5.00;99.90
1704;DHT22;849;48.780;9.216;2023-12-07T04:25:30;5.00;99.90
1704;DHT22;849;48.780;9.216;2023-12-07T04:28:14;4.90;99.90
1704;DHT22;849;48.780;9.216;2023-12-07T04:30:58;4.90;99.90
1704;DHT22;849;48.780;9.216;2023-12-07T04:33:42;4.80;99.90
1704;DHT22;849;48.780;9.216;2023-12-07T04:36:27;4.80;99.90
1704;DHT22;849;48.780;9.216;2023-12-07T04:39:11;4.70;99.90
1704;DHT22;849;48.780;9.216;2023-12-07T04:41:55;4.70;99.90
1704;DHT22;849;48.780;9.216;2023-12-07T04:44:39;4.50;99.90
1704;DHT22;849;48.780;9.216;2023-12-07T04:47:23;4.50;99.90
1704;DHT22;849;48.780;9.216;2023-12-07T04:50:08;4.50;99.90
1704;DHT22;849;48.780;9.216;2023-12-07T04:52:52;4.50;99.90
1704;DHT22;849;48.780;9.216;2023-12-07T04:55:38;4.40;99.90
1704;DHT22;849;48.780;9.216;2023-12-07T04:58:22;4.40;99.90
1704;DHT22;849;48.780;9.216;2023-12-07T05:01:06;4.40;99.90
1704;DHT22;849;48.780;9.216;2023-12-07T05:03:51;4.40;99.90
1704;DHT22;849;48.780;9.216;2023-12-07T05:06:35;4.40;99.90
1704;DHT22;849;48.780;9.216;2023-12-07T05:09:19;4.30;99.90
1704;DHT22;849;48.780;9.216;2023-12-07T05:12:03;4.30;99.90
1704;DHT22;849;48.780;9.216;2023-12-07T05:14:48;4.20;99.90
1704;DHT22;849;48.780;9.216;2023-12-07T05:17:32;4.20;99.90
1704;DHT22;849;48.780;9.216;2023-12-07T05:20:16;4.20;99.90
1704;DHT22;849;48.780;9.216;2023-12-07T05:23:02;4.20;99.90
1704;DHT22;849;48.780;9.216;2023-12-07T05:25:46;4.20;99.90
1704;DHT22;849;48.780;9.216;2023-12-07T05:28:31;4.10;99.90
1704;DHT22;849;48.780;9.216;2023-12-07T05:31:16;4.10;99.90
1704;DHT22;849;48.780;9.216;2023-12-07T05:34:00;4.00;99.90
1704;DHT22;849;48.780;9.216;2023-12-07T05:36:45;4.00;99.90
1704;DHT22;849;48.780;9.216;2023-12-07T05:39:30;4.00;99.90
1704;DHT22;849;48.780;9.216;2023-12-07T05:42:14;4.00;99.90
1704;DHT22;849;48.780;9.216;2023-12-07T05:44:58;4.40;99.90
1704;DHT22;849;48.780;9.216;2023-12-07T05:47:43;4.00;99.90
1704;DHT22;849;48.780;9.216;2023-12-07T05:50:27;4.00;99.90
1704;DHT22;849;48.780;9.216;2023-12-07T05:53:12;4.00;99.90
1704;DHT22;849;48.780;9.216;2023-12-07T05:55:57;4.00;99.90
1704;DHT22;849;48.780;9.216;2023-12-07T05:58:41;4.00;99.90
1704;DHT22;849;48.780;9.216;2023-12-07T06:01:25;4.00;99.90
1704;DHT22;849;48.780;9.216;2023-12-07T06:04:10;3.90;99.90
1704;DHT22;849;48.780;9.216;2023-12-07T06:06:57;3.90;99.90
1704;DHT22;849;48.780;9.216;2023-12-07T06:09:41;3.90;99.90
1704;DHT22;849;48.780;9.216;2023-12-07T06:12:25;3.90;99.90
1704;DHT22;849;48.780;9.216;2023-12-07T06:15:10;3.90;99.90
1704;DHT22;849;48.780;9.216;2023-12-07T06:17:54;3.90;99.90
1704;DHT22;849;48.780;9.216;2023-12-07T06:20:38;3.80;99.90
1704;DHT22;849;48.780;9.216;2023-12-07T06:23:22;3.80;99.90
1704;DHT22;849;48.780;9.216;2023-12-07T06:26:06;3.80;99.90
1704;DHT22;849;48.780;9.216;2023-12-07T06:28:50;3.70;99.90
1704;DHT22;849;48.780;9.216;2023-12-07T06:31:35;3.70;99.90
1704;DHT22;849;48.780;9.216;2023-12-07T06:34:19;3.70;99.90
1704;DHT22;849;48.780;9.216;2023-12-07T06:37:03;3.60;99.90
1704;DHT22;849;48.780;9.216;2023-12-07T06:39:47;3.50;99.90
1704;DHT22;849;48.780;9.216;2023-12-07T06:42:33;3.40;99.90
1704;DHT22;849;48.780;9.216;2023-12-07T06:45:17;3.40;99.90
1704;DHT22;849;48.780;9.216;2023-12-07T06:48:01;3.40;99.90
1704;DHT22;849;48.780;9.216;2023-12-07T06:50:45;3.40;99.90
1704;DHT22;849;48.780;9.216;2023-12-07T06:53:30;3.50;99.90
1704;DHT22;849;48.780;9.216;2023-12-07T06:56:15;3.50;99.90
1704;DHT22;849;48.780;9.216;2023-12-07T06:58:59;3.50;99.90
1704;DHT22;849;48.780;9.216;2023-12-07T07:01:43;3.50;99.90
1704;DHT22;849;48.780;9.216;2023-12-07T07:04:27;3.40;99.90
1704;DHT22;849;48.780;9.216;2023-12-07T07:07:12;3.50;99.90
1704;DHT22;849;48.780;9.216;2023-12-07T07:09:56;3.50;99.90
1704;DHT22;849;48.780;9.216;2023-12-07T07:12:41;3.50;99.90
1704;DHT22;849;48.780;9.216;2023-12-07T07:15:25;3.50;99.90
1704;DHT22;849;48.780;9.216;2023-12-07T07:18:09;3.50;99.90
1704;DHT22;849;48.780;9.216;2023-12-07T07:20:53;3.50;99.90
1704;DHT22;849;48.780;9.216;2023-12-07T07:23:38;3.50;99.90
1704;DHT22;849;48.780;9.216;2023-12-07T07:26:22;3.50;99.90
1704;DHT22;849;48.780;9.216;2023-12-07T07:29:06;3.50;99.90
1704;DHT22;849;48.780;9.216;2023-12-07T07:31:50;3.50;99.90
1704;DHT22;849;48.780;9.216;2023-12-07T07:34:34;3.40;99.90
1704;DHT22;849;48.780;9.216;2023-12-07T07:37:19;3.40;99.90
1704;DHT22;849;48.780;9.216;2023-12-07T07:40:03;3.40;99.90
1704;DHT22;849;48.780;9.216;2023-12-07T07:42:50;3.50;99.90
1704;DHT22;849;48.780;9.216;2023-12-07T07:45:34;3.40;99.90
1704;DHT22;849;48.780;9.216;2023-12-07T07:48:19;3.40;99.90
1704;DHT22;849;48.780;9.216;2023-12-07T07:51:03;3.50;99.90
1704;DHT22;849;48.780;9.216;2023-12-07T07:53:47;3.40;99.90
1704;DHT22;849;48.780;9.216;2023-12-07T07:56:31;3.50;99.90
1704;DHT22;849;48.780;9.216;2023-12-07T07:59:16;3.40;99.90
1704;DHT22;849;48.780;9.216;2023-12-07T08:02:00;3.40;99.90
1704;DHT22;849;48.780;9.216;2023-12-07T08:04:44;3.40;99.90
1704;DHT22;849;48.780;9.216;2023-12-07T08:07:28;3.40;99.90
1704;DHT22;849;48.780;9.216;2023-12-07T08:10:12;3.40;99.90
1704;DHT22;849;48.780;9.216;2023-12-07T08:12:56;3.40;99.90
1704;DHT22;849;48.780;9.216;2023-12-07T08:15:41;3.40;99.90
1704;DHT22;849;48.780;9.216;2023-12-07T08:18:25;3.40;99.90
1704;DHT22;849;48.780;9.216;2023-12-07T08:21:18;3.40;99.90
1704;DHT22;849;48.780;9.216;2023-12-07T08:24:03;3.30;99.90
1704;DHT22;849;48.780;9.216;2023-12-07T08:26:47;3.10;99.90
1704;DHT22;849;48.780;9.216;2023-12-07T08:29:32;3.20;99.90
1704;DHT22;849;48.780;9.216;2023-12-07T08:32:16;3.20;99.90
1704;DHT22;849;48.780;9.216;2023-12-07T08:35:03;3.20;99.90
1704;DHT22;849;48.780;9.216;2023-12-07T08:37:47;3.20;99.90
1704;DHT22;849;48.780;9.216;2023-12-07T08:40:32;3.10;99.90
1704;DHT22;849;48.780;9.216;2023-12-07T08:43:18;3.30;99.90
1704;DHT22;849;48.780;9.216;2023-12-07T08:46:02;3.30;99.90
1704;DHT22;849;48.780;9.216;2023-12-07T08:48:47;3.30;99.90
1704;DHT22;849;48.780;9.216;2023-12-07T08:51:31;3.40;99.90
1704;DHT22;849;48.780;9.216;2023-12-07T08:54:15;3.40;99.90
1704;DHT22;849;48.780;9.216;2023-12-07T08:57:00;3.40;99.90
1704;DHT22;849;48.780;9.216;2023-12-07T08:59:44;3.50;99.90
1704;DHT22;849;48.780;9.216;2023-12-07T09:02:28;3.50;99.90
1704;DHT22;849;48.780;9.216;2023-12-07T09:05:12;3.50;99.90
1704;DHT22;849;48.780;9.216;2023-12-07T09:07:56;3.50;99.90
1704;DHT22;849;48.780;9.216;2023-12-07T09:10:41;3.50;99.90
1704;DHT22;849;48.780;9.216;2023-12-07T09:13:25;3.50;99.90
1704;DHT22;849;48.780;9.216;2023-12-07T09:16:09;3.50;99.90
1704;DHT22;849;48.780;9.216;2023-12-07T09:18:53;3.50;99.90
1704;DHT22;849;48.780;9.216;2023-12-07T09:21:38;3.50;99.90
1704;DHT22;849;48.780;9.216;2023-12-07T09:24:22;3.40;99.90
1704;DHT22;849;48.780;9.216;2023-12-07T09:27:06;3.50;99.90
1704;DHT22;849;48.780;9.216;2023-12-07T09:29:51;3.50;99.90
1704;DHT22;849;48.780;9.216;2023-12-07T09:32:39;3.60;99.90
1704;DHT22;849;48.780;9.216;2023-12-07T09:35:23;3.70;99.90
1704;DHT22;849;48.780;9.216;2023-12-07T09:38:07;3.70;99.90
1704;DHT22;849;48.780;9.216;2023-12-07T09:40:52;3.80;99.90
1704;DHT22;849;48.780;9.216;2023-12-07T09:43:36;3.80;99.90
1704;DHT22;849;48.780;9.216;2023-12-07T09:46:21;3.90;99.90
1704;DHT22;849;48.780;9.216;2023-12-07T09:49:05;3.90;99.90
1704;DHT22;849;48.780;9.216;2023-12-07T09:51:49;4.00;99.90
1704;DHT22;849;48.780;9.216;2023-12-07T09:54:34;4.00;99.90
1704;DHT22;849;48.780;9.216;2023-12-07T09:57:22;4.00;99.90
1704;DHT22;849;48.780;9.216;2023-12-07T10:00:06;4.10;99.90
1704;DHT22;849;48.780;9.216;2023-12-07T10:02:54;4.10;99.90
1704;DHT22;849;48.780;9.216;2023-12-07T10:05:57;4.10;99.90
1704;DHT22;849;48.780;9.216;2023-12-07T10:08:42;4.10;99.90
1704;DHT22;849;48.780;9.216;2023-12-07T10:11:28;4.00;99.90
1704;DHT22;849;48.780;9.216;2023-12-07T10:14:12;4.00;99.90
1704;DHT22;849;48.780;9.216;2023-12-07T10:16:57;4.00;99.90
1704;DHT22;849;48.780;9.216;2023-12-07T10:19:41;4.00;99.90
1704;DHT22;849;48.780;9.216;2023-12-07T10:22:25;4.00;99.90
1704;DHT22;849;48.780;9.216;2023-12-07T10:25:09;4.00;99.90
1704;DHT22;849;48.780;9.216;2023-12-07T10:27:54;4.00;99.90
1704;DHT22;849;48.780;9.216;2023-12-07T10:30:42;4.10;99.90
1704;DHT22;849;48.780;9.216;2023-12-07T10:33:28;4.00;99.90
1704;DHT22;849;48.780;9.216;2023-12-07T10:36:12;4.10;99.90
1704;DHT22;849;48.780;9.216;2023-12-07T10:38:57;4.10;99.90
1704;DHT22;849;48.780;9.216;2023-12-07T10:41:42;4.10;99.90
1704;DHT22;849;48.780;9.216;2023-12-07T10:44:27;4.20;99.90
1704;DHT22;849;48.780;9.216;2023-12-07T10:47:11;4.20;99.90
1704;DHT22;849;48.780;9.216;2023-12-07T10:49:57;4.20;99.90
1704;DHT22;849;48.780;9.216;2023-12-07T10:52:44;4.30;99.90
1704;DHT22;849;48.780;9.216;2023-12-07T10:55:28;4.30;99.90
1704;DHT22;849;48.780;9.216;2023-12-07T10:58:14;4.30;99.90
1704;DHT22;849;48.780;9.216;2023-12-07T11:00:58;4.40;99.90
1704;DHT22;849;48.780;9.216;2023-12-07T11:03:43;4.70;99.90
1704;DHT22;849;48.780;9.216;2023-12-07T11:06:28;4.40;99.90
1704;DHT22;849;48.780;9.216;2023-12-07T11:09:19;4.50;99.90
1704;DHT22;849;48.780;9.216;2023-12-07T11:12:09;4.50;99.90
1704;DHT22;849;48.780;9.216;2023-12-07T11:14:56;4.50;99.90
1704;DHT22;849;48.780;9.216;2023-12-07T11:17:50;4.60;99.90
1704;DHT22;849;48.780;9.216;2023-12-07T11:20:41;4.60;99.90
1704;DHT22;849;48.780;9.216;2023-12-07T11:23:29;4.60;99.90
1704;DHT22;849;48.780;9.216;2023-12-07T11:26:13;4.70;99.90
1704;DHT22;849;48.780;9.216;2023-12-07T11:28:57;4.70;99.90
1704;DHT22;849;48.780;9.216;2023-12-07T11:31:41;4.70;99.90
1704;DHT22;849;48.780;9.216;2023-12-07T11:34:41;4.80;99.90
1704;DHT22;849;48.780;9.216;2023-12-07T11:37:27;4.80;99.90
1704;DHT22;849;48.780;9.216;2023-12-07T11:40:30;4.90;99.90
1704;DHT22;849;48.780;9.216;2023-12-07T11:43:30;4.90;99.90
1704;DHT22;849;48.780;9.216;2023-12-07T11:46:14;4.90;99.90
1704;DHT22;849;48.780;9.216;2023-12-07T11:48:59;5.00;99.90
1704;DHT22;849;48.780;9.216;2023-12-07T11:51:43;5.00;99.90
1704;DHT22;849;48.780;9.216;2023-12-07T11:54:27;4.90;99.90
1704;DHT22;849;48.780;9.216;2023-12-07T11:57:13;5.10;99.90
1704;DHT22;849;48.780;9.216;2023-12-07T11:59:57;5.10;99.90
1704;DHT22;849;48.780;9.216;2023-12-07T12:02:41;5.10;99.90
1704;DHT22;849;48.780;9.216;2023-12-07T12:05:26;5.10;99.90
1704;DHT22;849;48.780;9.216;2023-12-07T12:08:10;5.20;99.90
1704;DHT22;849;48.780;9.216;2023-12-07T12:10:55;5.20;99.90
1704;DHT22;849;48.780;9.216;2023-12-07T12:13:41;5.30;99.90
1704;DHT22;849;48.780;9.216;2023-12-07T12:16:25;5.30;99.90
1704;DHT22;849;48.780;9.216;2023-12-07T12:19:10;5.30;99.90
1704;DHT22;849;48.780;9.216;2023-12-07T12:21:54;5.50;99.90
1704;DHT22;849;48.780;9.216;2023-12-07T12:24:38;5.40;99.90
1704;DHT22;849;48.780;9.216;2023-12-07T12:27:23;5.40;99.90
1704;DHT22;849;48.780;9.216;2023-12-07T12:30:07;5.40;99.90
1704;DHT22;849;48.780;9.216;2023-12-07T12:32:51;5.40;99.90
1704;DHT22;849;48.780;9.216;2023-12-07T12:35:35;5.50;99.90
1704;DHT22;849;48.780;9.216;2023-12-07T12:38:19;5.50;99.90
1704;DHT22;849;48.780;9.216;2023-12-07T12:41:04;5.50;99.90
1704;DHT22;849;48.780;9.216;2023-12-07T12:43:48;5.50;99.90
1704;DHT22;849;48.780;9.216;2023-12-07T12:46:33;5.60;99.90
1704;DHT22;849;48.780;9.216;2023-12-07T12:49:18;5.60;99.90
1704;DHT22;849;48.780;9.216;2023-12-07T12:52:02;5.60;99.90
1704;DHT22;849;48.780;9.216;2023-12-07T12:54:46;5.60;99.90
1704;DHT22;849;48.780;9.216;2023-12-07T12:57:32;5.90;99.90
1704;DHT22;849;48.780;9.216;2023-12-07T13:00:16;5.60;99.90
1704;DHT22;849;48.780;9.216;2023-12-07T13:03:01;5.60;99.90
1704;DHT22;849;48.780;9.216;2023-12-07T13:05:46;5.60;99.90
1704;DHT22;849;48.780;9.216;2023-12-07T13:08:31;5.70;99.90
1704;DHT22;849;48.780;9.216;2023-12-07T13:11:20;5.70;99.90
1704;DHT22;849;48.780;9.216;2023-12-07T13:14:04;5.70;99.90
1704;DHT22;849;48.780;9.216;2023-12-07T13:16:51;5.70;99.90
1704;DHT22;849;48.780;9.216;2023-12-07T13:19:36;5.70;99.90
1704;DHT22;849;48.780;9.216;2023-12-07T13:22:20;5.70;99.90
1704;DHT22;849;48.780;9.216;2023-12-07T13:25:05;5.80;99.90
1704;DHT22;849;48.780;9.216;2023-12-07T13:27:49;5.80;99.90
1704;DHT22;849;48.780;9.216;2023-12-07T13:30:33;5.70;99.90
1704;DHT22;849;48.780;9.216;2023-12-07T13:33:19;5.70;99.90
1704;DHT22;849;48.780;9.216;2023-12-07T13:36:03;5.60;99.90
1704;DHT22;849;48.780;9.216;2023-12-07T13:38:47;5.60;99.90
1704;DHT22;849;48.780;9.216;2023-12-07T13:41:31;5.60;99.90
1704;DHT22;849;48.780;9.216;2023-12-07T13:44:17;5.50;99.90
1704;DHT22;849;48.780;9.216;2023-12-07T13:47:01;5.50;99.90
1704;DHT22;849;48.780;9.216;2023-12-07T13:49:46;5.50;99.90
1704;DHT22;849;48.780;9.216;2023-12-07T13:52:30;5.50;99.90
1704;DHT22;849;48.780;9.216;2023-12-07T13:55:14;5.40;99.90
1704;DHT22;849;48.780;9.216;2023-12-07T13:57:59;5.40;99.90
1704;DHT22;849;48.780;9.216;2023-12-07T14:00:43;5.40;99.90
1704;DHT22;849;48.780;9.216;2023-12-07T14:03:29;5.40;99.90
1704;DHT22;849;48.780;9.216;2023-12-07T14:06:20;5.30;99.90
1704;DHT22;849;48.780;9.216;2023-12-07T14:09:04;5.30;99.90
1704;DHT22;849;48.780;9.216;2023-12-07T14:11:49;5.30;99.90
1704;DHT22;849;48.780;9.216;2023-12-07T14:14:33;5.30;99.90
1704;DHT22;849;48.780;9.216;2023-12-07T14:17:17;5.30;99.90
1704;DHT22;849;48.780;9.216;2023-12-07T14:20:06;5.40;99.90
1704;DHT22;849;48.780;9.216;2023-12-07T14:22:53;5.30;99.90
1704;DHT22;849;48.780;9.216;2023-12-07T14:25:38;5.30;99.90
1704;DHT22;849;48.780;9.216;2023-12-07T14:28:24;5.30;99.90
1704;DHT22;849;48.780;9.216;2023-12-07T14:31:09;5.30;99.90
1704;DHT22;849;48.780;9.216;2023-12-07T14:34:00;5.30;99.90
1704;DHT22;849;48.780;9.216;2023-12-07T14:36:44;5.30;99.90
1704;DHT22;849;48.780;9.216;2023-12-07T14:39:28;5.30;99.90
1704;DHT22;849;48.780;9.216;2023-12-07T14:42:13;5.20;99.90
1704;DHT22;849;48.780;9.216;2023-12-07T14:44:57;5.20;99.90
1704;DHT22;849;48.780;9.216;2023-12-07T14:47:41;5.10;99.90
1704;DHT22;849;48.780;9.216;2023-12-07T14:50:26;5.00;99.90
1704;DHT22;849;48.780;9.216;2023-12-07T14:53:10;5.00;99.90
1704;DHT22;849;48.780;9.216;2023-12-07T14:55:54;4.90;99.90
1704;DHT22;849;48.780;9.216;2023-12-07T14:58:40;4.80;99.90
1704;DHT22;849;48.780;9.216;2023-12-07T15:01:25;4.80;99.90
1704;DHT22;849;48.780;9.216;2023-12-07T15:04:09;4.70;99.90
1704;DHT22;849;48.780;9.216;2023-12-07T15:06:53;4.70;99.90
1704;DHT22;849;48.780;9.216;2023-12-07T15:09:38;4.60;99.90
1704;DHT22;849;48.780;9.216;2023-12-07T15:12:22;4.60;99.90
1704;DHT22;849;48.780;9.216;2023-12-07T15:15:09;4.50;99.90
1704;DHT22;849;48.780;9.216;2023-12-07T15:17:53;4.50;99.90
1704;DHT22;849;48.780;9.216;2023-12-07T15:20:38;4.40;99.90
1704;DHT22;849;48.780;9.216;2023-12-07T15:23:22;4.40;99.90
1704;DHT22;849;48.780;9.216;2023-12-07T15:26:06;4.30;99.90
1704;DHT22;849;48.780;9.216;2023-12-07T15:28:52;4.30;99.90
1704;DHT22;849;48.780;9.216;2023-12-07T15:31:36;4.30;99.90
1704;DHT22;849;48.780;9.216;2023-12-07T15:34:21;4.60;99.90
1704;DHT22;849;48.780;9.216;2023-12-07T15:37:05;4.10;99.90
1704;DHT22;849;48.780;9.216;2023-12-07T15:39:50;4.00;99.90
1704;DHT22;849;48.780;9.216;2023-12-07T15:42:38;4.00;99.90
1704;DHT22;849;48.780;9.216;2023-12-07T15:45:22;4.00;99.90
1704;DHT22;849;48.780;9.216;2023-12-07T15:48:07;4.00;99.90
1704;DHT22;849;48.780;9.216;2023-12-07T15:50:52;4.00;99.90
1704;DHT22;849;48.780;9.216;2023-12-07T15:53:36;4.00;99.90
1704;DHT22;849;48.780;9.216;2023-12-07T15:56:22;4.00;98.30
1704;DHT22;849;48.780;9.216;2023-12-07T15:59:06;3.90;99.70
1704;DHT22;849;48.780;9.216;2023-12-07T16:01:50;3.90;99.90
1704;DHT22;849;48.780;9.216;2023-12-07T16:04:35;3.90;99.90
1704;DHT22;849;48.780;9.216;2023-12-07T16:07:19;3.90;99.90
1704;DHT22;849;48.780;9.216;2023-12-07T16:10:03;3.90;99.90
1704;DHT22;849;48.780;9.216;2023-12-07T16:12:47;3.80;99.90
1704;DHT22;849;48.780;9.216;2023-12-07T16:15:32;3.80;99.90
1704;DHT22;849;48.780;9.216;2023-12-07T16:18:16;3.70;99.90
1704;DHT22;849;48.780;9.216;2023-12-07T16:21:00;3.70;99.90
1704;DHT22;849;48.780;9.216;2023-12-07T16:23:44;3.60;99.90
1704;DHT22;849;48.780;9.216;2023-12-07T16:26:29;3.60;99.90
1704;DHT22;849;48.780;9.216;2023-12-07T16:29:13;3.60;99.90
1704;DHT22;849;48.780;9.216;2023-12-07T16:31:59;3.50;99.90
1704;DHT22;849;48.780;9.216;2023-12-07T16:34:43;3.50;99.90
1704;DHT22;849;48.780;9.216;2023-12-07T16:37:28;3.40;99.90
1704;DHT22;849;48.780;9.216;2023-12-07T16:40:13;3.60;99.90
1704;DHT22;849;48.780;9.216;2023-12-07T16:42:57;3.50;99.90
1704;DHT22;849;48.780;9.216;2023-12-07T16:45:41;3.40;99.90
1704;DHT22;849;48.780;9.216;2023-12-07T16:48:26;3.40;99.80
1704;DHT22;849;48.780;9.216;2023-12-07T16:51:10;3.40;98.20
1704;DHT22;849;48.780;9.216;2023-12-07T16:53:54;3.40;98.50
1704;DHT22;849;48.780;9.216;2023-12-07T16:56:39;3.50;98.30
1704;DHT22;849;48.780;9.216;2023-12-07T16:59:23;3.60;97.80
1704;DHT22;849;48.780;9.216;2023-12-07T17:02:07;3.60;96.80
1704;DHT22;849;48.780;9.216;2023-12-07T17:04:52;3.70;97.60
1704;DHT22;849;48.780;9.216;2023-12-07T17:07:35;3.70;96.80
1704;DHT22;849;48.780;9.216;2023-12-07T17:10:20;3.80;96.20
1704;DHT22;849;48.780;9.216;2023-12-07T17:13:04;3.80;95.80
1704;DHT22;849;48.780;9.216;2023-12-07T17:15:48;3.90;96.40
1704;DHT22;849;48.780;9.216;2023-12-07T17:18:32;4.20;96.10
1704;DHT22;849;48.780;9.216;2023-12-07T17:21:17;3.90;95.80
1704;DHT22;849;48.780;9.216;2023-12-07T17:24:01;3.90;96.50
1704;DHT22;849;48.780;9.216;2023-12-07T17:26:45;3.90;96.90
1704;DHT22;849;48.780;9.216;2023-12-07T17:29:29;4.30;96.40
1704;DHT22;849;48.780;9.216;2023-12-07T17:32:14;3.90;96.40
1704;DHT22;849;48.780;9.216;2023-12-07T17:34:58;3.90;96.20
1704;DHT22;849;48.780;9.216;2023-12-07T17:37:42;3.80;95.60
1704;DHT22;849;48.780;9.216;2023-12-07T17:40:26;3.80;95.80
1704;DHT22;849;48.780;9.216;2023-12-07T17:43:11;3.90;96.00
1704;DHT22;849;48.780;9.216;2023-12-07T17:45:55;3.90;96.10
1704;DHT22;849;48.780;9.216;2023-12-07T17:48:39;3.90;96.30
1704;DHT22;849;48.780;9.216;2023-12-07T17:51:23;3.90;95.70
1704;DHT22;849;48.780;9.216;2023-12-07T17:54:09;3.80;95.20
1704;DHT22;849;48.780;9.216;2023-12-07T17:56:53;3.80;95.80
1704;DHT22;849;48.780;9.216;2023-12-07T17:59:37;3.90;95.60
1704;DHT22;849;48.780;9.216;2023-12-07T18:02:22;3.80;96.10
1704;DHT22;849;48.780;9.216;2023-12-07T18:05:06;3.80;96.40
1704;DHT22;849;48.780;9.216;2023-12-07T18:07:51;3.80;96.60
1704;DHT22;849;48.780;9.216;2023-12-07T18:10:35;3.80;96.10
1704;DHT22;849;48.780;9.216;2023-12-07T18:13:19;3.80;96.60
1704;DHT22;849;48.780;9.216;2023-12-07T18:16:04;3.80;97.00
1704;DHT22;849;48.780;9.216;2023-12-07T18:18:48;3.80;96.60
1704;DHT22;849;48.780;9.216;2023-12-07T18:21:32;3.80;96.60
1704;DHT22;849;48.780;9.216;2023-12-07T18:24:16;4.20;97.20
1704;DHT22;849;48.780;9.216;2023-12-07T18:27:00;3.80;96.80
1704;DHT22;849;48.780;9.216;2023-12-07T18:29:45;3.70;96.90
1704;DHT22;849;48.780;9.216;2023-12-07T18:32:29;3.70;97.20
1704;DHT22;849;48.780;9.216;2023-12-07T18:35:13;3.70;97.40